Time;durP1;ratioP1;P1;durP2;ratioP2;P2;SDS_P1;SDS_P2;PMS_P1;PMS_P2;Temp;Humidity;BMP_temperature;BMP_pressure;BME280_temperature;BME280_humidity;BME280_pressure;Samples;Min_cycle;Max_cycle;Signal;HPM_P1;HPM_P2
2021/07/14 00:00:23;;;;;;;1.60;1.50;;;16.90;99.90;;;;;;5092571;28;20305;-72
2021/07/14 00:02:50;;;;;;;2.35;1.80;;;16.90;99.90;;;;;;5092810;28;20208;-71
2021/07/14 00:05:18;;;;;;;1.52;1.42;;;16.80;99.90;;;;;;5092436;28;20307;-72
2021/07/14 00:07:46;;;;;;;2.10;1.67;;;16.90;99.90;;;;;;5092213;28;20240;-72
2021/07/14 00:10:17;;;;;;;1.80;1.55;;;16.90;99.90;;;;;;5092456;28;20222;-71
2021/07/14 00:12:50;;;;;;;1.65;1.52;;;16.90;99.90;;;;;;5092832;28;20301;-72
2021/07/14 00:23:31;;;;;;;1.92;1.70;;;16.90;99.90;;;;;;5092619;28;20204;-70
2021/07/14 00:25:58;;;;;;;2.28;1.65;;;16.90;99.90;;;;;;5092158;28;20206;-70
2021/07/14 00:28:27;;;;;;;1.67;1.58;;;16.90;99.90;;;;;;5092155;28;20229;-71
2021/07/14 00:30:56;;;;;;;1.52;1.42;;;16.90;99.90;;;;;;5092168;28;20301;-71
2021/07/14 00:33:26;;;;;;;1.75;1.65;;;16.90;99.90;;;;;;5092377;28;20217;-69
2021/07/14 00:35:53;;;;;;;1.75;1.35;;;16.90;99.90;;;;;;5092601;28;20217;-71
2021/07/14 00:38:20;;;;;;;1.73;1.50;;;16.90;99.90;;;;;;5092032;28;20202;-71
2021/07/14 00:40:47;;;;;;;1.70;1.60;;;16.90;99.90;;;;;;5092367;28;20205;-70
2021/07/14 00:43:14;;;;;;;2.10;1.90;;;16.90;99.90;;;;;;5092472;28;20597;-72
2021/07/14 00:45:41;;;;;;;2.00;1.80;;;16.90;99.90;;;;;;5092225;28;20622;-71
2021/07/14 00:48:08;;;;;;;2.40;1.65;;;16.90;99.90;;;;;;5091808;28;20204;-71
2021/07/14 00:50:38;;;;;;;1.40;1.30;;;16.80;99.90;;;;;;5091977;28;20297;-72
2021/07/14 00:53:06;;;;;;;1.65;1.55;;;16.80;99.90;;;;;;5095595;28;20244;-72
2021/07/14 00:55:33;;;;;;;1.60;1.50;;;16.80;99.90;;;;;;5096168;28;20202;-73
2021/07/14 00:58:00;;;;;;;1.85;1.75;;;16.80;99.90;;;;;;5095940;28;20203;-70
2021/07/14 01:00:27;;;;;;;2.22;2.05;;;16.80;99.90;;;;;;5095719;28;20233;-71
2021/07/14 01:02:54;;;;;;;1.90;1.75;;;16.70;99.90;;;;;;5096136;28;20198;-71
2021/07/14 01:05:25;;;;;;;2.00;1.60;;;16.70;99.90;;;;;;5095916;28;20201;-70
2021/07/14 01:07:58;;;;;;;1.80;1.60;;;16.70;99.90;;;;;;5095800;28;20209;-70
2021/07/14 01:10:30;;;;;;;2.55;2.08;;;16.60;99.90;;;;;;5095754;28;20232;-70
2021/07/14 01:13:03;;;;;;;1.40;1.30;;;16.60;99.90;;;;;;5095859;28;20716;-70
2021/07/14 01:15:36;;;;;;;1.70;1.60;;;16.60;99.90;;;;;;5095621;28;20304;-71
2021/07/14 01:18:10;;;;;;;1.60;1.50;;;16.50;99.90;;;;;;5095394;28;20199;-70
2021/07/14 01:20:49;;;;;;;2.55;2.00;;;16.50;99.90;;;;;;5095639;28;20598;-70
2021/07/14 01:23:24;;;;;;;1.60;1.50;;;16.40;99.90;;;;;;5095658;28;20213;-71
2021/07/14 01:26:02;;;;;;;1.95;1.65;;;16.20;99.90;;;;;;5095532;28;20292;-70
2021/07/14 01:28:35;;;;;;;1.85;1.75;;;16.00;99.90;;;;;;5095219;28;20224;-70
2021/07/14 01:31:02;;;;;;;2.03;1.85;;;16.00;99.90;;;;;;5095255;28;20236;-71
2021/07/14 01:33:34;;;;;;;1.98;1.77;;;16.00;99.90;;;;;;5095417;28;20201;-72
2021/07/14 01:36:06;;;;;;;1.60;1.50;;;16.00;99.90;;;;;;5095187;28;20208;-71
2021/07/14 01:38:35;;;;;;;2.42;1.60;;;16.00;99.90;;;;;;5095109;28;20225;-70
2021/07/14 01:41:03;;;;;;;2.28;2.00;;;16.00;99.90;;;;;;5095146;28;20659;-70
2021/07/14 01:43:37;;;;;;;1.85;1.75;;;16.10;99.90;;;;;;5095332;28;20201;-70
2021/07/14 01:46:06;;;;;;;2.47;1.95;;;16.00;99.90;;;;;;5095203;28;20231;-71
2021/07/14 01:48:36;;;;;;;2.33;2.13;;;16.10;99.90;;;;;;5094799;28;20718;-70
2021/07/14 01:51:04;;;;;;;2.15;1.95;;;16.10;99.90;;;;;;5094793;28;20283;-70
2021/07/14 01:53:33;;;;;;;2.90;2.30;;;16.10;99.90;;;;;;5094975;28;20205;-70
2021/07/14 01:56:01;;;;;;;1.80;1.70;;;16.10;99.90;;;;;;5095042;28;20202;-70
2021/07/14 01:58:29;;;;;;;3.65;2.00;;;16.30;99.90;;;;;;5094559;28;20320;-71
2021/07/14 02:00:58;;;;;;;2.30;2.03;;;16.20;99.90;;;;;;5094858;28;20198;-70
2021/07/14 02:03:56;;;;;;;2.95;2.20;;;16.20;99.90;;;;;;5093816;28;20614;-72
2021/07/14 02:06:24;;;;;;;2.25;1.83;;;16.20;99.90;;;;;;5094482;28;20300;-72
2021/07/14 02:08:51;;;;;;;2.67;1.90;;;16.30;99.90;;;;;;5094655;28;20225;-71
2021/07/14 02:11:24;;;;;;;2.20;1.85;;;16.20;99.90;;;;;;5094624;28;20246;-71
2021/07/14 02:13:53;;;;;;;2.17;1.60;;;16.10;99.90;;;;;;5094790;28;20207;-73
2021/07/14 02:16:22;;;;;;;3.00;2.28;;;16.00;99.90;;;;;;5094322;28;20694;-72
2021/07/14 02:18:56;;;;;;;2.28;2.08;;;15.90;99.90;;;;;;5094438;28;20227;-73
2021/07/14 02:21:23;;;;;;;2.22;2.03;;;16.00;99.90;;;;;;5095489;28;20545;-75
2021/07/14 02:23:49;;;;;;;1.83;1.73;;;16.10;99.90;;;;;;5096314;28;20556;-73
2021/07/14 02:26:16;;;;;;;2.40;2.20;;;16.20;99.90;;;;;;5096180;28;20707;-73
2021/07/14 02:28:43;;;;;;;2.80;2.08;;;16.30;99.90;;;;;;5096034;28;20222;-74
2021/07/14 02:31:10;;;;;;;2.03;1.80;;;16.30;99.90;;;;;;5095517;28;20206;-73
2021/07/14 02:33:39;;;;;;;2.30;1.85;;;16.20;99.90;;;;;;5095655;28;20205;-73
2021/07/14 02:36:10;;;;;;;2.75;2.17;;;16.30;99.90;;;;;;5095598;28;20678;-73
2021/07/14 02:38:40;;;;;;;2.70;2.10;;;16.20;99.90;;;;;;5096000;28;20634;-73
2021/07/14 02:41:14;;;;;;;1.98;1.80;;;16.00;99.90;;;;;;5095753;28;20609;-73
2021/07/14 02:43:45;;;;;;;2.20;2.00;;;16.00;99.90;;;;;;5095960;28;20673;-73
2021/07/14 02:46:14;;;;;;;3.70;2.33;;;16.00;99.90;;;;;;5095609;28;20225;-73
2021/07/14 02:48:45;;;;;;;2.15;1.95;;;16.10;99.90;;;;;;5095954;28;20229;-73
2021/07/14 02:51:14;;;;;;;3.50;2.05;;;16.20;99.90;;;;;;5095378;28;20191;-73
2021/07/14 02:53:47;;;;;;;2.30;1.95;;;16.10;99.90;;;;;;5096306;28;20659;-73
2021/07/14 02:56:18;;;;;;;2.80;2.25;;;16.20;99.90;;;;;;5096205;28;20296;-73
2021/07/14 02:58:50;;;;;;;2.97;2.13;;;16.20;99.90;;;;;;5095425;28;20218;-73
2021/07/14 03:01:17;;;;;;;1.98;1.77;;;16.30;99.90;;;;;;5095282;28;20299;-73
2021/07/14 03:03:48;;;;;;;2.35;2.15;;;16.20;99.90;;;;;;5095055;28;20300;-73
2021/07/14 03:06:15;;;;;;;2.10;1.90;;;16.10;99.90;;;;;;5095864;28;20193;-73
2021/07/14 03:08:46;;;;;;;1.60;1.45;;;16.10;99.90;;;;;;5095493;28;20695;-73
2021/07/14 03:11:14;;;;;;;2.55;1.92;;;15.90;99.90;;;;;;5095372;28;20591;-73
2021/07/14 03:13:44;;;;;;;2.25;2.13;;;16.00;99.90;;;;;;5095981;28;20198;-73
2021/07/14 03:16:11;;;;;;;2.00;1.80;;;16.00;99.90;;;;;;5095319;28;20205;-73
2021/07/14 03:18:40;;;;;;;2.33;1.98;;;16.10;99.90;;;;;;5095114;28;20308;-73
2021/07/14 03:21:09;;;;;;;1.95;1.85;;;16.20;99.90;;;;;;5094774;28;20205;-73
2021/07/14 03:23:39;;;;;;;2.08;1.98;;;16.20;99.90;;;;;;5094928;28;20611;-73
2021/07/14 03:26:07;;;;;;;2.35;2.15;;;16.20;99.90;;;;;;5095097;28;20202;-73
2021/07/14 03:28:34;;;;;;;1.60;1.50;;;16.20;99.90;;;;;;5094867;28;20225;-74
2021/07/14 03:31:02;;;;;;;2.33;1.95;;;16.20;99.90;;;;;;5094893;28;20291;-73
2021/07/14 03:33:31;;;;;;;2.65;1.98;;;16.20;99.90;;;;;;5095124;28;20231;-73
2021/07/14 03:35:59;;;;;;;3.75;2.42;;;16.10;99.90;;;;;;5095082;28;20201;-73
2021/07/14 03:38:29;;;;;;;3.40;2.00;;;16.00;99.90;;;;;;5094627;28;20883;-73
2021/07/14 03:40:56;;;;;;;2.00;1.67;;;16.00;99.90;;;;;;5094453;28;20548;-73
2021/07/14 03:43:24;;;;;;;1.63;1.52;;;16.00;99.90;;;;;;5095105;28;20205;-73
2021/07/14 03:45:52;;;;;;;1.30;1.20;;;16.10;99.90;;;;;;5095096;28;20209;-73
2021/07/14 03:48:21;;;;;;;1.73;1.58;;;16.10;99.90;;;;;;5094448;28;20208;-73
2021/07/14 03:50:49;;;;;;;1.80;1.70;;;16.20;99.90;;;;;;5093945;28;20296;-73
2021/07/14 03:53:18;;;;;;;1.13;1.10;;;16.20;99.90;;;;;;5094377;28;20272;-73
2021/07/14 03:55:48;;;;;;;1.25;1.15;;;16.20;99.90;;;;;;5094696;28;20651;-73
2021/07/14 03:58:15;;;;;;;1.67;1.58;;;16.20;99.90;;;;;;5094780;28;20212;-73
2021/07/14 04:00:42;;;;;;;2.38;2.17;;;16.00;99.90;;;;;;5093686;28;20205;-73
2021/07/14 04:03:10;;;;;;;1.70;1.60;;;16.00;99.90;;;;;;5094602;28;20201;-73
2021/07/14 04:05:41;;;;;;;1.90;1.60;;;16.00;99.90;;;;;;5094433;28;20240;-73
2021/07/14 04:08:10;;;;;;;1.80;1.60;;;16.00;99.90;;;;;;5094343;28;20550;-73
2021/07/14 04:10:36;;;;;;;1.80;1.70;;;15.80;99.90;;;;;;5094160;28;20198;-73
2021/07/14 04:13:05;;;;;;;2.72;2.00;;;15.70;99.90;;;;;;5094508;28;20247;-73
2021/07/14 04:15:31;;;;;;;2.65;1.85;;;15.70;99.90;;;;;;5094005;28;20570;-73
2021/07/14 04:17:58;;;;;;;2.15;1.95;;;15.60;99.90;;;;;;5095750;28;20204;-73
2021/07/14 04:20:25;;;;;;;2.88;1.85;;;15.60;99.90;;;;;;5095826;28;20220;-73
2021/07/14 04:22:52;;;;;;;3.20;1.60;;;15.70;99.90;;;;;;5095002;28;20201;-73
2021/07/14 04:25:19;;;;;;;2.40;1.92;;;15.70;99.90;;;;;;5094910;28;20295;-73
2021/07/14 04:27:46;;;;;;;2.38;1.83;;;15.80;99.90;;;;;;5097203;28;20291;-73
2021/07/14 04:30:16;;;;;;;1.75;1.65;;;15.90;99.90;;;;;;5098016;28;20243;-73
2021/07/14 04:32:43;;;;;;;2.10;1.70;;;16.00;99.90;;;;;;5098866;28;20224;-73
2021/07/14 04:35:10;;;;;;;1.63;1.42;;;15.90;99.90;;;;;;5099228;28;20211;-73
2021/07/14 04:37:37;;;;;;;1.90;1.65;;;15.80;99.90;;;;;;5099058;28;20231;-73
2021/07/14 04:40:05;;;;;;;2.38;2.03;;;15.80;99.90;;;;;;5097855;28;20317;-73
2021/07/14 04:42:32;;;;;;;2.28;1.70;;;15.80;99.90;;;;;;5098316;28;20216;-73
2021/07/14 04:44:59;;;;;;;2.17;1.95;;;15.80;99.90;;;;;;5098370;28;20207;-73
2021/07/14 04:47:27;;;;;;;1.50;1.40;;;15.90;99.90;;;;;;5098735;28;20303;-73
2021/07/14 04:49:54;;;;;;;2.53;2.33;;;16.00;99.90;;;;;;5098696;28;20260;-73
2021/07/14 04:52:21;;;;;;;2.30;1.95;;;16.20;99.90;;;;;;5098704;28;20235;-73
2021/07/14 04:54:47;;;;;;;2.53;1.60;;;16.30;99.90;;;;;;5098137;28;20198;-73
2021/07/14 04:57:14;;;;;;;2.45;2.20;;;16.40;99.90;;;;;;5098193;28;20296;-73
2021/07/14 04:59:41;;;;;;;1.83;1.70;;;16.50;99.90;;;;;;5098602;28;20308;-73
2021/07/14 05:02:08;;;;;;;2.15;1.98;;;16.50;99.90;;;;;;5098416;28;20617;-73
2021/07/14 05:04:36;;;;;;;2.08;1.88;;;16.50;99.90;;;;;;5099078;28;20541;-73
2021/07/14 05:07:04;;;;;;;2.40;2.20;;;16.50;99.90;;;;;;5098453;28;20221;-73
2021/07/14 05:09:31;;;;;;;2.20;2.00;;;16.60;99.90;;;;;;5098078;28;20222;-73
2021/07/14 05:11:58;;;;;;;2.10;1.90;;;16.60;99.90;;;;;;5097944;28;20292;-73
2021/07/14 05:14:25;;;;;;;1.77;1.67;;;16.50;99.90;;;;;;5098135;28;20297;-73
2021/07/14 05:16:52;;;;;;;3.00;2.00;;;16.40;99.90;;;;;;5098271;28;20202;-73
2021/07/14 05:19:19;;;;;;;2.00;1.90;;;16.20;99.90;;;;;;5098905;28;20232;-73
2021/07/14 05:21:47;;;;;;;2.08;1.70;;;16.10;99.90;;;;;;5099044;28;20211;-73
2021/07/14 05:24:14;;;;;;;1.95;1.85;;;16.00;99.90;;;;;;5098244;28;20201;-73
2021/07/14 05:26:41;;;;;;;2.47;1.70;;;15.90;99.90;;;;;;5098348;28;20228;-73
2021/07/14 05:29:07;;;;;;;2.13;1.70;;;15.90;99.90;;;;;;5098156;28;20246;-73
2021/07/14 05:31:34;;;;;;;2.15;1.90;;;15.90;99.90;;;;;;5097618;28;20304;-73
2021/07/14 05:34:01;;;;;;;2.90;2.30;;;15.80;99.90;;;;;;5097894;28;20696;-73
2021/07/14 05:36:29;;;;;;;2.10;1.90;;;15.80;99.90;;;;;;5097352;28;20205;-73
2021/07/14 05:38:59;;;;;;;2.20;1.55;;;15.80;99.90;;;;;;5097052;28;20763;-73
2021/07/14 05:41:26;;;;;;;1.92;1.83;;;15.80;99.90;;;;;;5096892;28;20213;-73
2021/07/14 05:43:54;;;;;;;1.65;1.55;;;15.90;99.90;;;;;;5097744;28;20204;-73
2021/07/14 05:46:21;;;;;;;2.00;1.80;;;15.90;99.90;;;;;;5097792;28;20231;-73
2021/07/14 05:48:49;;;;;;;1.63;1.52;;;16.00;99.90;;;;;;5097010;28;20229;-73
2021/07/14 05:51:16;;;;;;;2.47;1.92;;;15.90;99.90;;;;;;5097619;28;20278;-73
2021/07/14 05:53:42;;;;;;;1.83;1.50;;;15.90;99.90;;;;;;5097694;28;20222;-73
2021/07/14 05:56:11;;;;;;;3.35;2.17;;;16.00;99.90;;;;;;5097753;28;20201;-73
2021/07/14 05:58:37;;;;;;;2.08;1.75;;;15.90;99.90;;;;;;5097728;28;20225;-73
2021/07/14 06:01:04;;;;;;;2.05;1.83;;;15.90;99.90;;;;;;5097031;28;20215;-73
2021/07/14 06:03:31;;;;;;;1.75;1.65;;;16.00;99.90;;;;;;5097335;28;20197;-73
2021/07/14 06:05:58;;;;;;;2.28;1.85;;;16.00;99.90;;;;;;5097269;28;20209;-73
2021/07/14 06:08:25;;;;;;;2.35;2.15;;;16.00;99.90;;;;;;5097312;28;20294;-73
2021/07/14 06:10:52;;;;;;;2.78;2.08;;;16.00;99.90;;;;;;5097195;28;20571;-73
2021/07/14 06:13:21;;;;;;;1.90;1.80;;;16.00;99.90;;;;;;5096916;28;20225;-73
2021/07/14 06:15:48;;;;;;;2.47;1.90;;;16.00;99.90;;;;;;5097133;28;20296;-73
2021/07/14 06:18:14;;;;;;;2.88;2.00;;;16.00;99.90;;;;;;5096695;28;20308;-73
2021/07/14 06:20:41;;;;;;;2.38;2.17;;;16.00;99.90;;;;;;5097405;28;20206;-73
2021/07/14 06:23:08;;;;;;;1.77;1.63;;;16.10;99.90;;;;;;5096749;28;20201;-73
2021/07/14 06:25:35;;;;;;;2.45;2.00;;;16.10;99.90;;;;;;5096350;28;20204;-73
2021/07/14 06:28:05;;;;;;;2.38;2.08;;;16.10;99.90;;;;;;5096896;28;20249;-73
2021/07/14 06:30:33;;;;;;;2.53;2.08;;;16.10;99.90;;;;;;5096701;28;20232;-73
2021/07/14 06:33:01;;;;;;;2.00;1.90;;;16.10;99.90;;;;;;5097124;28;20261;-73
2021/07/14 06:35:28;;;;;;;1.70;1.60;;;16.20;99.90;;;;;;5097133;28;20547;-73
2021/07/14 06:37:54;;;;;;;1.67;1.58;;;16.20;99.90;;;;;;5097445;28;20212;-73
2021/07/14 06:40:21;;;;;;;2.28;2.08;;;16.30;99.90;;;;;;5097168;28;20239;-73
2021/07/14 06:42:49;;;;;;;2.45;2.00;;;16.30;99.90;;;;;;5096136;28;20237;-73
2021/07/14 06:45:16;;;;;;;2.38;2.17;;;16.30;99.90;;;;;;5096430;28;20655;-73
2021/07/14 06:47:45;;;;;;;1.83;1.73;;;16.40;99.90;;;;;;5095683;28;20209;-73
2021/07/14 06:50:14;;;;;;;1.77;1.67;;;16.60;99.90;;;;;;5095102;28;20223;-73
2021/07/14 06:52:42;;;;;;;2.30;2.10;;;16.60;99.90;;;;;;5095475;28;20209;-73
2021/07/14 06:55:10;;;;;;;4.20;3.47;;;16.80;99.90;;;;;;5094843;28;20209;-73
2021/07/14 06:57:38;;;;;;;2.10;1.90;;;16.90;99.90;;;;;;5095047;28;20568;-73
2021/07/14 07:00:07;;;;;;;2.40;2.20;;;16.90;99.90;;;;;;5094845;28;20233;-73
2021/07/14 07:02:33;;;;;;;1.80;1.70;;;16.90;99.90;;;;;;5095151;28;20296;-73
2021/07/14 07:05:02;;;;;;;1.50;1.40;;;17.00;99.90;;;;;;5095342;28;20291;-73
2021/07/14 07:07:29;;;;;;;2.00;1.80;;;17.00;99.90;;;;;;5095326;28;20212;-73
2021/07/14 07:09:56;;;;;;;2.80;2.15;;;17.00;99.90;;;;;;5095304;28;20312;-73
2021/07/14 07:12:23;;;;;;;2.10;1.90;;;17.10;99.90;;;;;;5094832;28;20206;-73
2021/07/14 07:14:50;;;;;;;2.15;2.05;;;17.10;99.90;;;;;;5095094;28;20267;-73
2021/07/14 07:17:16;;;;;;;2.55;2.35;;;17.20;99.90;;;;;;5094968;28;20621;-73
2021/07/14 07:19:43;;;;;;;2.22;1.90;;;17.20;99.90;;;;;;5095334;28;20217;-73
2021/07/14 07:22:11;;;;;;;2.75;2.35;;;17.20;99.90;;;;;;5095213;28;20210;-73
2021/07/14 07:24:38;;;;;;;2.65;2.00;;;17.10;99.90;;;;;;5095216;28;20202;-73
2021/07/14 07:27:07;;;;;;;2.25;2.05;;;17.00;99.90;;;;;;5095323;28;20293;-73
2021/07/14 07:29:35;;;;;;;4.80;2.67;;;17.00;99.90;;;;;;5094538;28;20230;-74
2021/07/14 07:32:01;;;;;;;2.53;2.10;;;16.90;99.90;;;;;;5094918;28;20205;-74
2021/07/14 07:34:28;;;;;;;2.03;1.92;;;16.80;99.90;;;;;;5088697;28;20222;-70
2021/07/14 07:36:55;;;;;;;2.17;2.03;;;16.80;99.90;;;;;;5084087;28;20300;-72
2021/07/14 07:39:23;;;;;;;2.70;2.50;;;16.70;99.90;;;;;;5092994;28;20324;-72
2021/07/14 07:41:50;;;;;;;2.35;1.85;;;16.70;99.90;;;;;;5092994;28;20232;-72
2021/07/14 07:44:17;;;;;;;6.50;2.88;;;16.80;99.90;;;;;;5093071;28;20240;-71
2021/07/14 07:46:44;;;;;;;2.33;2.13;;;16.80;99.90;;;;;;5093060;28;20294;-71
2021/07/14 07:49:11;;;;;;;1.80;1.67;;;16.80;99.90;;;;;;5092956;28;20225;-72
2021/07/14 07:51:38;;;;;;;1.95;1.85;;;16.80;99.90;;;;;;5092703;28;20604;-72
2021/07/14 07:54:05;;;;;;;1.90;1.65;;;16.80;99.90;;;;;;5092813;28;20701;-75
2021/07/14 07:56:34;;;;;;;1.92;1.70;;;16.90;99.90;;;;;;5093061;28;20202;-71
2021/07/14 07:59:01;;;;;;;1.77;1.40;;;17.00;99.90;;;;;;5092981;28;20637;-72
2021/07/14 08:01:28;;;;;;;1.80;1.70;;;17.00;99.90;;;;;;5091771;28;20210;-69
2021/07/14 08:03:55;;;;;;;2.10;1.98;;;17.10;99.90;;;;;;5092857;28;20563;-71
2021/07/14 08:06:22;;;;;;;1.88;1.77;;;17.10;99.90;;;;;;5094050;28;20213;-71
2021/07/14 08:08:48;;;;;;;1.98;1.88;;;17.00;99.90;;;;;;5093933;28;20317;-71
2021/07/14 08:11:15;;;;;;;1.80;1.70;;;17.00;99.90;;;;;;5093686;28;20208;-73
2021/07/14 08:13:43;;;;;;;1.50;1.40;;;16.90;99.90;;;;;;5094093;28;20221;-74
2021/07/14 08:16:10;;;;;;;2.45;2.25;;;16.90;99.90;;;;;;5094060;28;20204;-74
2021/07/14 08:18:37;;;;;;;2.28;2.00;;;16.90;99.90;;;;;;5093979;28;20228;-74
2021/07/14 08:21:04;;;;;;;2.10;2.00;;;17.00;99.90;;;;;;5093575;28;20206;-74
2021/07/14 08:23:31;;;;;;;1.88;1.77;;;17.10;99.90;;;;;;5093689;28;20644;-74
2021/07/14 08:25:57;;;;;;;2.35;2.15;;;17.10;99.90;;;;;;5093836;28;20296;-74
2021/07/14 08:28:24;;;;;;;1.98;1.85;;;17.10;99.90;;;;;;5093853;28;20201;-74
2021/07/14 08:30:53;;;;;;;1.95;1.83;;;17.20;99.90;;;;;;5093453;28;20300;-74
2021/07/14 08:33:20;;;;;;;1.65;1.55;;;17.30;99.90;;;;;;5093978;28;20218;-73
2021/07/14 08:35:46;;;;;;;2.13;1.92;;;17.40;99.90;;;;;;5093502;28;20297;-74
2021/07/14 08:38:14;;;;;;;3.00;2.80;;;17.50;99.90;;;;;;5093483;28;20206;-74
2021/07/14 08:40:42;;;;;;;1.65;1.55;;;17.60;99.90;;;;;;5093558;28;20288;-74
2021/07/14 08:43:11;;;;;;;1.92;1.70;;;17.60;99.90;;;;;;5093809;28;20662;-74
2021/07/14 08:45:38;;;;;;;2.60;2.13;;;17.70;99.90;;;;;;5094071;28;20716;-74
2021/07/14 08:48:08;;;;;;;1.90;1.70;;;17.70;99.90;;;;;;5093988;28;20199;-74
2021/07/14 08:50:42;;;;;;;1.92;1.83;;;17.80;99.90;;;;;;5094135;28;20206;-73
2021/07/14 08:53:10;;;;;;;2.38;2.17;;;17.80;99.90;;;;;;5093640;28;20202;-74
2021/07/14 08:55:37;;;;;;;1.65;1.55;;;17.80;99.90;;;;;;5093885;28;20202;-74
2021/07/14 08:58:04;;;;;;;1.88;1.77;;;17.80;99.90;;;;;;5093274;28;20582;-74
2021/07/14 09:00:31;;;;;;;2.45;2.00;;;17.90;99.90;;;;;;5093698;28;20313;-74
2021/07/14 09:02:58;;;;;;;1.98;1.80;;;18.00;99.90;;;;;;5093236;28;20206;-74
2021/07/14 09:05:26;;;;;;;2.50;2.30;;;18.10;99.90;;;;;;5093627;28;20286;-74
2021/07/14 09:07:53;;;;;;;2.08;1.90;;;18.20;99.90;;;;;;5093708;28;20289;-74
2021/07/14 09:10:20;;;;;;;2.20;1.88;;;18.30;99.90;;;;;;5093236;28;20791;-74
2021/07/14 09:12:49;;;;;;;2.58;2.40;;;18.40;99.90;;;;;;5095105;28;20593;-74
2021/07/14 09:15:19;;;;;;;2.10;2.00;;;18.40;99.90;;;;;;5097108;28;20221;-74
2021/07/14 09:17:48;;;;;;;2.60;2.40;;;18.40;99.90;;;;;;5097296;28;20209;-74
2021/07/14 09:20:19;;;;;;;2.40;2.08;;;18.40;99.90;;;;;;5097039;28;20245;-74
2021/07/14 09:22:48;;;;;;;2.10;2.00;;;18.30;99.90;;;;;;5097369;28;20206;-74
2021/07/14 09:25:18;;;;;;;3.38;3.08;;;18.30;99.90;;;;;;5097470;28;20211;-74
2021/07/14 09:27:55;;;;;;;2.72;2.53;;;18.30;99.90;;;;;;5097513;28;20289;-74
2021/07/14 09:30:23;;;;;;;1.92;1.80;;;18.30;99.90;;;;;;5096565;28;20240;-74
2021/07/14 09:32:55;;;;;;;2.13;1.95;;;18.30;99.90;;;;;;5097309;28;20201;-74
2021/07/14 09:35:27;;;;;;;2.30;2.00;;;18.30;99.90;;;;;;5097263;28;20226;-74
2021/07/14 09:37:58;;;;;;;2.25;2.00;;;18.50;99.90;;;;;;5097443;28;20440;-74
2021/07/14 09:40:25;;;;;;;2.37;2.17;;;18.60;99.90;;;;;;5097399;28;20305;-74
2021/07/14 09:42:59;;;;;;;2.80;2.60;;;18.60;99.90;;;;;;5096763;28;20447;-74
2021/07/14 09:45:47;;;;;;;2.93;2.20;;;18.60;99.90;;;;;;5096899;28;20443;-74
2021/07/14 09:48:17;;;;;;;3.40;3.10;;;18.80;99.90;;;;;;5096985;28;20472;-74
2021/07/14 09:50:48;;;;;;;2.67;2.40;;;18.80;99.90;;;;;;5096135;28;20427;-74
2021/07/14 09:53:22;;;;;;;2.70;2.20;;;18.90;99.90;;;;;;5096378;28;20942;-74
2021/07/14 09:55:50;;;;;;;2.50;2.30;;;19.00;99.90;;;;;;5096720;28;20473;-74
2021/07/14 09:58:22;;;;;;;2.93;2.40;;;19.00;99.90;;;;;;5096468;28;20440;-74
2021/07/14 10:00:50;;;;;;;2.60;2.20;;;19.10;99.90;;;;;;5096563;28;20480;-74
2021/07/14 10:03:28;;;;;;;2.60;2.40;;;19.20;99.90;;;;;;5096184;28;20531;-74
2021/07/14 10:06:01;;;;;;;2.57;1.90;;;19.30;99.90;;;;;;5096342;28;20525;-74
2021/07/14 10:08:30;;;;;;;3.00;2.80;;;19.50;99.90;;;;;;5096457;28;20857;-74
2021/07/14 10:11:12;;;;;;;2.50;2.30;;;19.60;99.90;;;;;;5096318;28;20530;-74
2021/07/14 10:13:40;;;;;;;2.10;1.93;;;19.70;99.90;;;;;;5095816;28;20948;-74
2021/07/14 10:16:07;;;;;;;1.97;1.87;;;19.80;99.90;;;;;;5095964;28;20447;-74
2021/07/14 10:18:34;;;;;;;2.20;2.00;;;20.10;99.90;;;;;;5095875;28;20578;-74
2021/07/14 10:21:04;;;;;;;1.93;1.83;;;20.30;99.90;;;;;;5095439;28;20542;-75
2021/07/14 10:23:33;;;;;;;2.20;2.00;;;20.60;99.90;;;;;;5096021;28;20443;-74
2021/07/14 10:26:01;;;;;;;2.13;1.97;;;20.90;99.90;;;;;;5095666;28;20440;-74
2021/07/14 10:28:32;;;;;;;1.60;1.50;;;21.00;99.90;;;;;;5095996;28;20782;-74
2021/07/14 10:30:59;;;;;;;1.97;1.77;;;21.30;99.90;;;;;;5096023;28;20444;-75
2021/07/14 10:33:27;;;;;;;2.10;2.00;;;21.60;99.90;;;;;;5096082;28;20444;-74
2021/07/14 10:35:57;;;;;;;1.70;1.60;;;21.80;99.90;;;;;;5096085;28;20567;-74
2021/07/14 10:38:26;;;;;;;1.90;1.80;;;22.00;99.90;;;;;;5096311;28;20440;-75
2021/07/14 10:40:56;;;;;;;1.37;1.27;;;22.10;99.90;;;;;;5095978;28;20446;-75
2021/07/14 10:43:25;;;;;;;1.50;1.40;;;22.30;99.90;;;;;;5095663;28;20930;-75
2021/07/14 10:45:53;;;;;;;1.87;1.73;;;22.40;99.90;;;;;;5095921;28;20829;-75
2021/07/14 10:48:21;;;;;;;2.13;1.60;;;22.40;99.90;;;;;;5095744;28;20436;-75
2021/07/14 10:50:50;;;;;;;2.30;1.67;;;22.20;99.90;;;;;;5095432;28;20791;-75
2021/07/14 10:53:17;;;;;;;1.57;1.47;;;22.20;99.90;;;;;;5095458;28;20919;-74
2021/07/14 10:55:46;;;;;;;2.77;1.70;;;22.10;99.90;;;;;;5095479;28;20483;-74
2021/07/14 10:58:18;;;;;;;1.43;1.33;;;22.00;99.90;;;;;;5095679;28;20794;-75
2021/07/14 11:00:46;;;;;;;1.37;1.30;;;22.00;99.90;;;;;;5095354;28;20539;-75
2021/07/14 11:03:40;;;;;;;1.47;1.37;;;22.00;99.90;;;;;;5095683;28;20444;-74
2021/07/14 11:06:08;;;;;;;1.63;1.53;;;22.00;99.90;;;;;;5095254;28;20451;-75
2021/07/14 11:08:39;;;;;;;2.13;1.47;;;22.00;99.90;;;;;;5095286;28;20818;-75
2021/07/14 11:11:06;;;;;;;1.50;1.40;;;22.00;99.90;;;;;;5095028;28;20458;-75
2021/07/14 11:13:36;;;;;;;1.50;1.40;;;22.10;99.90;;;;;;5095408;28;20433;-75
2021/07/14 11:16:27;;;;;;;1.70;1.60;;;22.10;99.90;;;;;;5095807;28;20501;-75
2021/07/14 11:19:05;;;;;;;1.50;1.40;;;22.10;99.90;;;;;;5095035;28;20826;-75
2021/07/14 11:21:50;;;;;;;1.53;1.43;;;21.90;99.90;;;;;;5094832;28;20527;-75
2021/07/14 11:24:58;;;;;;;1.40;1.30;;;21.80;99.90;;;;;;5095249;28;20440;-75
2021/07/14 11:27:58;;;;;;;1.33;1.23;;;21.90;99.90;;;;;;5094635;28;20928;-74
2021/07/14 11:30:32;;;;;;;1.17;1.07;;;21.90;99.90;;;;;;5094706;28;20504;-74
2021/07/14 11:33:01;;;;;;;1.37;1.27;;;21.90;99.90;;;;;;5094698;28;20492;-75
2021/07/14 11:35:37;;;;;;;0.83;0.83;;;21.80;99.90;;;;;;5094536;28;20507;-75
2021/07/14 11:38:05;;;;;;;1.20;1.10;;;22.10;99.90;;;;;;5094528;28;20850;-75
2021/07/14 11:40:40;;;;;;;1.33;1.23;;;22.20;99.80;;;;;;5094541;28;20474;-75
2021/07/14 11:43:20;;;;;;;0.77;0.77;;;22.40;99.90;;;;;;5094944;28;20440;-75
2021/07/14 11:45:50;;;;;;;1.77;1.63;;;22.70;99.90;;;;;;5094379;28;20436;-75
2021/07/14 11:48:26;;;;;;;1.43;1.33;;;22.70;99.50;;;;;;5094737;28;20441;-75
2021/07/14 11:50:56;;;;;;;1.17;1.07;;;22.80;98.50;;;;;;5095241;28;20437;-75
2021/07/14 11:53:36;;;;;;;1.00;1.00;;;22.80;98.90;;;;;;5094792;28;20450;-75
2021/07/14 11:56:05;;;;;;;1.10;1.00;;;22.80;99.90;;;;;;5094608;28;20534;-75
2021/07/14 11:58:52;;;;;;;0.87;0.87;;;22.80;98.40;;;;;;5094610;28;20830;-75
2021/07/14 12:02:02;;;;;;;1.30;1.20;;;22.80;97.70;;;;;;5093998;28;20479;-75
2021/07/14 12:04:40;;;;;;;1.40;1.23;;;22.70;98.10;;;;;;5094391;28;20436;-75
2021/07/14 12:07:16;;;;;;;0.97;0.93;;;22.70;97.50;;;;;;5094845;28;20458;-75
2021/07/14 12:09:45;;;;;;;2.80;2.20;;;22.70;97.30;;;;;;5094115;28;20464;-75
2021/07/14 12:12:23;;;;;;;0.87;0.87;;;22.50;97.80;;;;;;5094553;28;20467;-75
2021/07/14 12:14:51;;;;;;;1.20;1.10;;;22.30;98.40;;;;;;5094181;28;20486;-75
2021/07/14 12:17:21;;;;;;;0.97;0.97;;;22.30;98.30;;;;;;5094450;28;20535;-75
2021/07/14 12:19:50;;;;;;;0.80;0.80;;;22.40;97.50;;;;;;5095119;28;20475;-74
2021/07/14 12:22:18;;;;;;;1.20;1.10;;;22.30;98.30;;;;;;5094592;28;20519;-75
2021/07/14 12:24:48;;;;;;;1.00;0.97;;;22.30;99.30;;;;;;5094472;28;20441;-75
2021/07/14 12:27:20;;;;;;;1.00;1.00;;;22.30;98.70;;;;;;5094396;28;20445;-75
2021/07/14 12:29:50;;;;;;;2.30;2.10;;;22.30;98.50;;;;;;5094436;28;20826;-73
2021/07/14 12:32:28;;;;;;;1.83;1.73;;;22.40;98.30;;;;;;5094385;28;20441;-75
2021/07/14 12:34:56;;;;;;;1.37;1.27;;;22.50;97.20;;;;;;5094565;28;20468;-75
2021/07/14 12:37:23;;;;;;;1.10;1.00;;;22.40;98.10;;;;;;5094078;28;20941;-75
2021/07/14 12:39:49;;;;;;;0.90;0.90;;;22.50;99.40;;;;;;5094159;28;20547;-74
2021/07/14 12:42:21;;;;;;;1.20;1.10;;;22.50;98.70;;;;;;5093990;28;20919;-74
2021/07/14 12:44:50;;;;;;;1.17;1.07;;;22.40;97.60;;;;;;5094191;28;20441;-75
2021/07/14 12:47:18;;;;;;;1.13;1.07;;;22.40;98.30;;;;;;5094973;28;20446;-75
2021/07/14 12:49:48;;;;;;;1.00;1.00;;;22.50;98.90;;;;;;5098494;28;20469;-75
2021/07/14 12:52:17;;;;;;;0.80;0.80;;;22.60;98.50;;;;;;5099203;28;20442;-75
2021/07/14 12:54:45;;;;;;;1.50;1.40;;;22.70;99.40;;;;;;5098606;28;20472;-75
2021/07/14 12:57:27;;;;;;;1.20;1.10;;;22.80;99.80;;;;;;5098483;28;20441;-75
2021/07/14 13:00:00;;;;;;;1.13;1.10;;;23.00;98.90;;;;;;5097924;28;20468;-75
2021/07/14 13:02:28;;;;;;;1.40;1.30;;;22.90;99.70;;;;;;5098628;28;20832;-75
2021/07/14 13:04:59;;;;;;;2.57;2.30;;;22.90;98.00;;;;;;5098612;28;20441;-75
2021/07/14 13:07:29;;;;;;;1.90;1.53;;;23.00;98.30;;;;;;5098646;28;20440;-75